sensor_id;sensor_type;location;lat;lon;timestamp;pressure;altitude;pressure_sealevel;temperature;humidity
48718;BME280;34521;33.042;-96.586;2023-07-31T00:01:09;99681.86;;;23.86;29.02
48718;BME280;34521;33.042;-96.586;2023-07-31T00:03:34;99673.60;;;23.19;29.56
48718;BME280;34521;33.042;-96.586;2023-07-31T00:05:59;99674.73;;;24.34;29.20
48718;BME280;34521;33.042;-96.586;2023-07-31T00:08:24;99679.30;;;23.77;29.57
48718;BME280;34521;33.042;-96.586;2023-07-31T00:10:52;99674.93;;;22.89;31.16
48718;BME280;34521;33.042;-96.586;2023-07-31T00:13:15;99675.55;;;22.90;30.99
48718;BME280;34521;33.042;-96.586;2023-07-31T00:15:40;99675.93;;;23.51;30.23
48718;BME280;34521;33.042;-96.586;2023-07-31T00:18:04;99674.34;;;23.44;29.71
48718;BME280;34521;33.042;-96.586;2023-07-31T00:20:30;99672.62;;;23.66;29.34
48718;BME280;34521;33.042;-96.586;2023-07-31T00:22:55;99673.76;;;23.70;29.05
48718;BME280;34521;33.042;-96.586;2023-07-31T00:25:20;99675.10;;;24.11;29.54
48718;BME280;34521;33.042;-96.586;2023-07-31T00:27:45;99672.76;;;24.09;29.42
48718;BME280;34521;33.042;-96.586;2023-07-31T00:30:11;99674.99;;;23.05;30.88
48718;BME280;34521;33.042;-96.586;2023-07-31T00:32:35;99677.20;;;23.34;30.46
48718;BME280;34521;33.042;-96.586;2023-07-31T00:35:00;99678.31;;;23.53;29.92
48718;BME280;34521;33.042;-96.586;2023-07-31T00:37:25;99680.01;;;23.38;29.79
48718;BME280;34521;33.042;-96.586;2023-07-31T00:39:50;99677.25;;;23.17;29.78
48718;BME280;34521;33.042;-96.586;2023-07-31T00:42:15;99677.00;;;23.48;29.22
48718;BME280;34521;33.042;-96.586;2023-07-31T00:44:40;99679.61;;;23.40;30.26
48718;BME280;34521;33.042;-96.586;2023-07-31T00:47:05;99681.47;;;23.78;29.57
48718;BME280;34521;33.042;-96.586;2023-07-31T00:49:30;99680.91;;;24.34;28.92
48718;BME280;34521;33.042;-96.586;2023-07-31T00:51:55;99681.95;;;23.23;30.76
48718;BME280;34521;33.042;-96.586;2023-07-31T00:54:20;99686.31;;;23.87;29.53
48718;BME280;34521;33.042;-96.586;2023-07-31T00:56:46;99683.90;;;23.90;29.25
48718;BME280;34521;33.042;-96.586;2023-07-31T00:59:11;99683.06;;;23.24;29.74
48718;BME280;34521;33.042;-96.586;2023-07-31T01:01:36;99684.33;;;23.34;29.70
48718;BME280;34521;33.042;-96.586;2023-07-31T01:04:01;99683.43;;;23.57;29.05
48718;BME280;34521;33.042;-96.586;2023-07-31T01:06:33;99680.02;;;23.53;28.91
48718;BME280;34521;33.042;-96.586;2023-07-31T01:08:57;99675.33;;;23.03;29.28
48718;BME280;34521;33.042;-96.586;2023-07-31T01:11:21;99674.61;;;23.21;29.08
48718;BME280;34521;33.042;-96.586;2023-07-31T01:13:42;99673.53;;;22.48;29.60
48718;BME280;34521;33.042;-96.586;2023-07-31T01:16:06;99671.42;;;22.81;29.08
48718;BME280;34521;33.042;-96.586;2023-07-31T01:18:31;99670.46;;;22.73;29.04
48718;BME280;34521;33.042;-96.586;2023-07-31T01:21:18;99671.34;;;22.89;28.81
48718;BME280;34521;33.042;-96.586;2023-07-31T01:23:37;99673.75;;;23.05;28.96
48718;BME280;34521;33.042;-96.586;2023-07-31T01:25:53;99677.60;;;22.35;29.11
48718;BME280;34521;33.042;-96.586;2023-07-31T01:28:14;99676.69;;;22.80;28.61
48718;BME280;34521;33.042;-96.586;2023-07-31T01:30:41;99672.02;;;23.19;28.54
48718;BME280;34521;33.042;-96.586;2023-07-31T01:33:02;99669.97;;;23.07;28.31
48718;BME280;34521;33.042;-96.586;2023-07-31T01:35:27;99676.43;;;21.96;29.97
48718;BME280;34521;33.042;-96.586;2023-07-31T01:37:53;99679.35;;;24.50;27.30
48718;BME280;34521;33.042;-96.586;2023-07-31T01:40:17;99682.59;;;24.25;27.59
48718;BME280;34521;33.042;-96.586;2023-07-31T01:42:42;99678.32;;;22.60;29.84
48718;BME280;34521;33.042;-96.586;2023-07-31T01:45:08;99680.35;;;22.94;29.36
48718;BME280;34521;33.042;-96.586;2023-07-31T01:47:32;99686.03;;;22.91;29.03
48718;BME280;34521;33.042;-96.586;2023-07-31T01:49:57;99684.67;;;22.65;29.22
48718;BME280;34521;33.042;-96.586;2023-07-31T01:52:22;99688.83;;;22.76;29.08
48718;BME280;34521;33.042;-96.586;2023-07-31T01:54:47;99692.93;;;22.91;28.28
48718;BME280;34521;33.042;-96.586;2023-07-31T01:57:12;99699.55;;;22.17;28.99
48718;BME280;34521;33.042;-96.586;2023-07-31T01:59:37;99698.11;;;22.23;28.80
48718;BME280;34521;33.042;-96.586;2023-07-31T02:02:02;99698.57;;;23.30;28.72
48718;BME280;34521;33.042;-96.586;2023-07-31T02:04:27;99701.63;;;23.90;28.16
48718;BME280;34521;33.042;-96.586;2023-07-31T02:06:53;99697.43;;;22.53;29.87
48718;BME280;34521;33.042;-96.586;2023-07-31T02:09:17;99697.39;;;23.10;29.33
48718;BME280;34521;33.042;-96.586;2023-07-31T02:11:42;99703.02;;;22.98;28.77
48718;BME280;34521;33.042;-96.586;2023-07-31T02:14:08;99706.73;;;22.79;28.92
48718;BME280;34521;33.042;-96.586;2023-07-31T02:16:33;99713.22;;;22.59;29.14
48718;BME280;34521;33.042;-96.586;2023-07-31T02:18:57;99716.57;;;22.68;28.77
48718;BME280;34521;33.042;-96.586;2023-07-31T02:21:23;99715.49;;;22.29;28.77
48718;BME280;34521;33.042;-96.586;2023-07-31T02:23:48;99719.46;;;22.28;29.58
48718;BME280;34521;33.042;-96.586;2023-07-31T02:26:13;99716.23;;;24.59;26.96
48718;BME280;34521;33.042;-96.586;2023-07-31T02:28:38;99717.15;;;23.74;27.74
48718;BME280;34521;33.042;-96.586;2023-07-31T02:31:03;99716.33;;;22.22;30.14
48718;BME280;34521;33.042;-96.586;2023-07-31T02:33:28;99722.12;;;22.67;29.47
48718;BME280;34521;33.042;-96.586;2023-07-31T02:35:53;99726.11;;;22.17;29.70
48718;BME280;34521;33.042;-96.586;2023-07-31T02:38:18;99729.97;;;22.71;28.88
48718;BME280;34521;33.042;-96.586;2023-07-31T02:40:43;99729.42;;;22.17;28.93
48718;BME280;34521;33.042;-96.586;2023-07-31T02:43:08;99729.03;;;22.86;28.32
48718;BME280;34521;33.042;-96.586;2023-07-31T02:45:33;99729.12;;;22.06;29.67
48718;BME280;34521;33.042;-96.586;2023-07-31T02:47:58;99730.75;;;23.60;28.17
48718;BME280;34521;33.042;-96.586;2023-07-31T02:50:23;99731.07;;;24.21;27.66
48718;BME280;34521;33.042;-96.586;2023-07-31T02:52:48;99736.15;;;22.24;29.97
48718;BME280;34521;33.042;-96.586;2023-07-31T02:55:13;99737.35;;;22.65;29.24
48718;BME280;34521;33.042;-96.586;2023-07-31T02:57:38;99738.71;;;22.52;29.20
48718;BME280;34521;33.042;-96.586;2023-07-31T03:00:05;99736.26;;;22.29;29.25
48718;BME280;34521;33.042;-96.586;2023-07-31T03:02:29;99732.09;;;22.17;29.20
48718;BME280;34521;33.042;-96.586;2023-07-31T03:04:54;99732.69;;;21.99;28.85
48718;BME280;34521;33.042;-96.586;2023-07-31T03:07:19;99727.27;;;23.29;28.60
48718;BME280;34521;33.042;-96.586;2023-07-31T03:09:44;99730.39;;;24.11;27.72
48718;BME280;34521;33.042;-96.586;2023-07-31T03:12:09;99727.70;;;24.23;27.47
48718;BME280;34521;33.042;-96.586;2023-07-31T03:14:34;99726.71;;;22.42;29.77
48718;BME280;34521;33.042;-96.586;2023-07-31T03:16:59;99722.84;;;22.32;29.56
48718;BME280;34521;33.042;-96.586;2023-07-31T03:19:24;99723.13;;;22.76;28.70
48718;BME280;34521;33.042;-96.586;2023-07-31T03:21:49;99723.74;;;22.56;28.65
48718;BME280;34521;33.042;-96.586;2023-07-31T03:24:14;99721.80;;;22.27;28.69
48718;BME280;34521;33.042;-96.586;2023-07-31T03:26:39;99723.29;;;21.92;29.70
48718;BME280;34521;33.042;-96.586;2023-07-31T03:29:04;99725.75;;;24.06;27.60
48718;BME280;34521;33.042;-96.586;2023-07-31T03:31:29;99727.02;;;23.04;28.53
48718;BME280;34521;33.042;-96.586;2023-07-31T03:33:54;99729.41;;;22.82;29.27
48718;BME280;34521;33.042;-96.586;2023-07-31T03:36:19;99728.09;;;22.45;29.44
48718;BME280;34521;33.042;-96.586;2023-07-31T03:38:45;99729.43;;;22.54;29.05
48718;BME280;34521;33.042;-96.586;2023-07-31T03:41:10;99727.33;;;22.44;29.15
48718;BME280;34521;33.042;-96.586;2023-07-31T03:43:34;99729.78;;;22.21;28.82
48718;BME280;34521;33.042;-96.586;2023-07-31T03:46:00;99732.84;;;22.21;28.83
48718;BME280;34521;33.042;-96.586;2023-07-31T03:48:25;99733.37;;;23.47;28.11
48718;BME280;34521;33.042;-96.586;2023-07-31T03:50:50;99730.57;;;23.48;27.94
48718;BME280;34521;33.042;-96.586;2023-07-31T03:53:15;99723.74;;;23.07;28.18
48718;BME280;34521;33.042;-96.586;2023-07-31T03:55:40;99724.83;;;22.26;29.73
48718;BME280;34521;33.042;-96.586;2023-07-31T03:58:05;99720.85;;;22.26;29.31
48718;BME280;34521;33.042;-96.586;2023-07-31T04:00:30;99721.71;;;22.35;28.72
48718;BME280;34521;33.042;-96.586;2023-07-31T04:02:55;99722.81;;;22.44;28.62
48718;BME280;34521;33.042;-96.586;2023-07-31T04:05:20;99725.79;;;22.05;28.90
48718;BME280;34521;33.042;-96.586;2023-07-31T04:07:45;99725.10;;;24.37;27.15
48718;BME280;34521;33.042;-96.586;2023-07-31T04:10:10;99721.73;;;23.20;28.14
48718;BME280;34521;33.042;-96.586;2023-07-31T04:12:36;99723.38;;;23.59;27.60
48718;BME280;34521;33.042;-96.586;2023-07-31T04:15:00;99723.04;;;21.95;29.88
48718;BME280;34521;33.042;-96.586;2023-07-31T04:17:26;99718.33;;;21.94;29.49
48718;BME280;34521;33.042;-96.586;2023-07-31T04:19:51;99721.57;;;22.20;29.06
48718;BME280;34521;33.042;-96.586;2023-07-31T04:22:16;99718.99;;;22.08;28.82
48718;BME280;34521;33.042;-96.586;2023-07-31T04:24:41;99721.36;;;21.85;29.30
48718;BME280;34521;33.042;-96.586;2023-07-31T04:27:06;99716.42;;;23.59;27.84
48718;BME280;34521;33.042;-96.586;2023-07-31T04:29:31;99717.50;;;23.78;27.73
48718;BME280;34521;33.042;-96.586;2023-07-31T04:31:56;99721.66;;;23.78;27.54
48718;BME280;34521;33.042;-96.586;2023-07-31T04:34:21;99722.87;;;21.97;29.53
48718;BME280;34521;33.042;-96.586;2023-07-31T04:36:46;99722.17;;;22.40;29.27
48718;BME280;34521;33.042;-96.586;2023-07-31T04:39:11;99722.80;;;22.79;28.35
48718;BME280;34521;33.042;-96.586;2023-07-31T04:41:36;99730.14;;;21.76;29.06
48718;BME280;34521;33.042;-96.586;2023-07-31T04:44:02;99732.71;;;21.88;29.09
48718;BME280;34521;33.042;-96.586;2023-07-31T04:46:26;99727.69;;;22.82;28.51
48718;BME280;34521;33.042;-96.586;2023-07-31T04:48:51;99727.19;;;23.39;28.03
48718;BME280;34521;33.042;-96.586;2023-07-31T04:51:16;99730.07;;;23.71;27.79
48718;BME280;34521;33.042;-96.586;2023-07-31T04:53:41;99729.69;;;23.16;28.73
48718;BME280;34521;33.042;-96.586;2023-07-31T04:56:06;99735.52;;;22.08;29.48
48718;BME280;34521;33.042;-96.586;2023-07-31T04:58:32;99737.40;;;22.64;28.60
48718;BME280;34521;33.042;-96.586;2023-07-31T05:00:57;99741.54;;;21.88;28.97
48718;BME280;34521;33.042;-96.586;2023-07-31T05:03:21;99740.71;;;21.91;28.86
48718;BME280;34521;33.042;-96.586;2023-07-31T05:05:47;99739.76;;;23.00;28.38
48718;BME280;34521;33.042;-96.586;2023-07-31T05:08:12;99740.33;;;22.63;28.57
48718;BME280;34521;33.042;-96.586;2023-07-31T05:10:37;99735.48;;;23.02;28.16
48718;BME280;34521;33.042;-96.586;2023-07-31T05:13:02;99736.86;;;24.02;27.48
48718;BME280;34521;33.042;-96.586;2023-07-31T05:15:27;99738.15;;;21.91;29.52
48718;BME280;34521;33.042;-96.586;2023-07-31T05:17:52;99747.81;;;22.16;29.06
48718;BME280;34521;33.042;-96.586;2023-07-31T05:20:17;99753.47;;;21.84;29.07
48718;BME280;34521;33.042;-96.586;2023-07-31T05:22:42;99755.05;;;21.56;28.93
48718;BME280;34521;33.042;-96.586;2023-07-31T05:25:08;99758.17;;;22.37;28.89
48718;BME280;34521;33.042;-96.586;2023-07-31T05:27:33;99758.28;;;23.24;27.55
48718;BME280;34521;33.042;-96.586;2023-07-31T05:29:57;99755.62;;;23.41;27.86
48718;BME280;34521;33.042;-96.586;2023-07-31T05:32:22;99756.98;;;23.77;27.55
48718;BME280;34521;33.042;-96.586;2023-07-31T05:34:50;99757.23;;;22.34;29.17
48718;BME280;34521;33.042;-96.586;2023-07-31T05:37:13;99758.67;;;21.42;29.86
48718;BME280;34521;33.042;-96.586;2023-07-31T05:39:37;99766.32;;;21.96;29.00
48718;BME280;34521;33.042;-96.586;2023-07-31T05:42:03;99769.78;;;21.51;29.00
48718;BME280;34521;33.042;-96.586;2023-07-31T05:44:28;99775.42;;;22.19;29.00
48718;BME280;34521;33.042;-96.586;2023-07-31T05:46:53;99774.26;;;24.41;26.73
48718;BME280;34521;33.042;-96.586;2023-07-31T05:49:18;99772.84;;;23.34;27.68
48718;BME280;34521;33.042;-96.586;2023-07-31T05:51:43;99773.86;;;23.63;27.68
48718;BME280;34521;33.042;-96.586;2023-07-31T05:54:08;99774.48;;;23.38;27.73
48718;BME280;34521;33.042;-96.586;2023-07-31T05:56:33;99778.26;;;21.73;29.87
48718;BME280;34521;33.042;-96.586;2023-07-31T05:58:58;99778.22;;;21.89;29.50
48718;BME280;34521;33.042;-96.586;2023-07-31T06:01:23;99777.59;;;21.37;29.64
48718;BME280;34521;33.042;-96.586;2023-07-31T06:03:48;99773.67;;;21.61;29.66
48718;BME280;34521;33.042;-96.586;2023-07-31T06:06:13;99772.88;;;23.41;27.89
48718;BME280;34521;33.042;-96.586;2023-07-31T06:08:38;99778.62;;;23.72;27.53
48718;BME280;34521;33.042;-96.586;2023-07-31T06:11:03;99781.53;;;22.67;28.17
48718;BME280;34521;33.042;-96.586;2023-07-31T06:13:28;99774.56;;;23.35;27.78
48718;BME280;34521;33.042;-96.586;2023-07-31T06:15:53;99780.16;;;21.79;29.73
48718;BME280;34521;33.042;-96.586;2023-07-31T06:18:18;99781.66;;;22.35;28.83
48718;BME280;34521;33.042;-96.586;2023-07-31T06:20:44;99782.95;;;21.37;29.35
48718;BME280;34521;33.042;-96.586;2023-07-31T06:23:09;99783.21;;;21.49;29.46
48718;BME280;34521;33.042;-96.586;2023-07-31T06:25:34;99778.64;;;23.46;27.58
48718;BME280;34521;33.042;-96.586;2023-07-31T06:27:59;99782.07;;;23.39;27.77
48718;BME280;34521;33.042;-96.586;2023-07-31T06:30:24;99789.21;;;22.95;28.21
48718;BME280;34521;33.042;-96.586;2023-07-31T06:32:49;99796.02;;;23.86;27.46
48718;BME280;34521;33.042;-96.586;2023-07-31T06:35:14;99793.96;;;23.62;27.50
48718;BME280;34521;33.042;-96.586;2023-07-31T06:37:39;99798.94;;;21.62;29.92
48718;BME280;34521;33.042;-96.586;2023-07-31T06:40:05;99798.50;;;21.52;29.62
48718;BME280;34521;33.042;-96.586;2023-07-31T06:42:29;99796.81;;;21.41;29.33
48718;BME280;34521;33.042;-96.586;2023-07-31T06:44:55;99797.95;;;22.26;29.24
48718;BME280;34521;33.042;-96.586;2023-07-31T06:47:19;99794.61;;;23.53;27.58
48718;BME280;34521;33.042;-96.586;2023-07-31T06:49:44;99798.13;;;23.17;28.01
48718;BME280;34521;33.042;-96.586;2023-07-31T06:52:09;99802.49;;;22.91;28.14
48718;BME280;34521;33.042;-96.586;2023-07-31T06:54:34;99799.13;;;23.32;27.56
48718;BME280;34521;33.042;-96.586;2023-07-31T06:57:00;99801.09;;;22.27;29.13
48718;BME280;34521;33.042;-96.586;2023-07-31T06:59:25;99795.32;;;22.18;28.99
48718;BME280;34521;33.042;-96.586;2023-07-31T07:01:50;99791.84;;;21.94;28.97
48718;BME280;34521;33.042;-96.586;2023-07-31T07:04:15;99795.15;;;21.29;29.51
48718;BME280;34521;33.042;-96.586;2023-07-31T07:06:40;99799.80;;;22.58;28.78
48718;BME280;34521;33.042;-96.586;2023-07-31T07:09:05;99799.14;;;22.80;28.43
48718;BME280;34521;33.042;-96.586;2023-07-31T07:11:31;99798.53;;;23.13;28.19
48718;BME280;34521;33.042;-96.586;2023-07-31T07:13:55;99798.36;;;23.02;28.02
48718;BME280;34521;33.042;-96.586;2023-07-31T07:16:20;99795.93;;;23.39;27.49
48718;BME280;34521;33.042;-96.586;2023-07-31T07:18:45;99796.83;;;21.76;29.92
48718;BME280;34521;33.042;-96.586;2023-07-31T07:21:10;99792.98;;;21.51;29.72
48718;BME280;34521;33.042;-96.586;2023-07-31T07:23:35;99793.42;;;21.56;29.21
48718;BME280;34521;33.042;-96.586;2023-07-31T07:26:01;99797.11;;;22.02;28.48
48718;BME280;34521;33.042;-96.586;2023-07-31T07:28:25;99793.46;;;23.06;27.99
48718;BME280;34521;33.042;-96.586;2023-07-31T07:30:52;99789.66;;;22.60;28.30
48718;BME280;34521;33.042;-96.586;2023-07-31T07:33:15;99784.86;;;23.03;27.96
48718;BME280;34521;33.042;-96.586;2023-07-31T07:35:40;99778.32;;;23.31;27.73
48718;BME280;34521;33.042;-96.586;2023-07-31T07:38:06;99778.13;;;24.09;27.23
48718;BME280;34521;33.042;-96.586;2023-07-31T07:40:31;99776.64;;;21.76;29.63
48718;BME280;34521;33.042;-96.586;2023-07-31T07:42:56;99779.82;;;22.02;29.08
48718;BME280;34521;33.042;-96.586;2023-07-31T07:45:21;99777.78;;;21.78;28.79
48718;BME280;34521;33.042;-96.586;2023-07-31T07:47:46;99775.65;;;21.35;29.30
48718;BME280;34521;33.042;-96.586;2023-07-31T07:50:11;99763.49;;;23.59;27.60
48718;BME280;34521;33.042;-96.586;2023-07-31T07:52:36;99765.75;;;22.80;28.26
48718;BME280;34521;33.042;-96.586;2023-07-31T07:55:01;99765.21;;;23.07;28.04
48718;BME280;34521;33.042;-96.586;2023-07-31T07:57:26;99757.74;;;23.22;27.95
48718;BME280;34521;33.042;-96.586;2023-07-31T07:59:52;99751.76;;;23.79;27.20
48718;BME280;34521;33.042;-96.586;2023-07-31T08:02:16;99751.12;;;21.60;29.66
48718;BME280;34521;33.042;-96.586;2023-07-31T08:04:41;99750.59;;;21.63;29.26
48718;BME280;34521;33.042;-96.586;2023-07-31T08:07:06;99749.40;;;21.70;28.76
48718;BME280;34521;33.042;-96.586;2023-07-31T08:09:31;99751.98;;;21.72;29.35
48718;BME280;34521;33.042;-96.586;2023-07-31T08:11:57;99749.44;;;23.60;27.39
48718;BME280;34521;33.042;-96.586;2023-07-31T08:14:22;99747.06;;;23.24;27.75
48718;BME280;34521;33.042;-96.586;2023-07-31T08:16:47;99738.99;;;22.81;28.05
48718;BME280;34521;33.042;-96.586;2023-07-31T08:19:12;99734.28;;;23.69;27.70
48718;BME280;34521;33.042;-96.586;2023-07-31T08:21:37;99732.92;;;23.58;27.64
48718;BME280;34521;33.042;-96.586;2023-07-31T08:24:02;99735.00;;;21.86;29.38
48718;BME280;34521;33.042;-96.586;2023-07-31T08:26:27;99737.38;;;21.56;29.68
48718;BME280;34521;33.042;-96.586;2023-07-31T08:28:52;99740.73;;;21.30;29.22
48718;BME280;34521;33.042;-96.586;2023-07-31T08:31:17;99741.93;;;21.19;29.60
48718;BME280;34521;33.042;-96.586;2023-07-31T08:33:42;99744.30;;;22.61;28.54
48718;BME280;34521;33.042;-96.586;2023-07-31T08:36:07;99748.31;;;23.12;27.85
48718;BME280;34521;33.042;-96.586;2023-07-31T08:38:32;99751.78;;;22.86;28.19
48718;BME280;34521;33.042;-96.586;2023-07-31T08:40:57;99746.37;;;23.33;27.74
48718;BME280;34521;33.042;-96.586;2023-07-31T08:43:25;99745.91;;;23.41;27.49
48718;BME280;34521;33.042;-96.586;2023-07-31T08:45:49;99743.54;;;22.53;28.64
48718;BME280;34521;33.042;-96.586;2023-07-31T08:48:12;99740.96;;;21.14;29.78
48718;BME280;34521;33.042;-96.586;2023-07-31T08:50:38;99739.85;;;21.31;29.54
48718;BME280;34521;33.042;-96.586;2023-07-31T08:53:02;99743.08;;;21.17;29.29
48718;BME280;34521;33.042;-96.586;2023-07-31T08:55:29;99738.95;;;23.79;27.15
48718;BME280;34521;33.042;-96.586;2023-07-31T08:57:53;99738.11;;;22.52;28.48
48718;BME280;34521;33.042;-96.586;2023-07-31T09:00:18;99737.63;;;22.61;28.47
48718;BME280;34521;33.042;-96.586;2023-07-31T09:02:46;99734.98;;;23.24;27.83
48718;BME280;34521;33.042;-96.586;2023-07-31T09:05:08;99734.61;;;23.39;27.69
48718;BME280;34521;33.042;-96.586;2023-07-31T09:07:35;99734.18;;;23.47;27.45
48718;BME280;34521;33.042;-96.586;2023-07-31T09:09:58;99729.44;;;21.36;29.72
48718;BME280;34521;33.042;-96.586;2023-07-31T09:12:23;99726.37;;;21.69;29.25
48718;BME280;34521;33.042;-96.586;2023-07-31T09:14:48;99727.13;;;20.98;29.62
48718;BME280;34521;33.042;-96.586;2023-07-31T09:17:13;99722.94;;;22.94;28.29
48718;BME280;34521;33.042;-96.586;2023-07-31T09:19:38;99721.22;;;23.63;27.34
48718;BME280;34521;33.042;-96.586;2023-07-31T09:22:04;99725.98;;;22.49;28.27
48718;BME280;34521;33.042;-96.586;2023-07-31T09:24:30;99730.30;;;23.34;27.77
48718;BME280;34521;33.042;-96.586;2023-07-31T09:26:55;99739.29;;;23.84;27.30
48718;BME280;34521;33.042;-96.586;2023-07-31T09:29:20;99745.15;;;23.46;27.46
48718;BME280;34521;33.042;-96.586;2023-07-31T09:31:44;99752.02;;;21.47;29.62
48718;BME280;34521;33.042;-96.586;2023-07-31T09:34:08;99753.83;;;20.97;29.92
48718;BME280;34521;33.042;-96.586;2023-07-31T09:36:42;99757.31;;;21.55;28.94
48718;BME280;34521;33.042;-96.586;2023-07-31T09:39:02;99761.49;;;21.46;29.61
48718;BME280;34521;33.042;-96.586;2023-07-31T09:41:24;99758.47;;;23.84;27.24
48718;BME280;34521;33.042;-96.586;2023-07-31T09:43:53;99763.86;;;22.91;27.98
48718;BME280;34521;33.042;-96.586;2023-07-31T09:46:14;99763.36;;;23.21;27.79
48718;BME280;34521;33.042;-96.586;2023-07-31T09:48:39;99761.77;;;23.07;27.98
48718;BME280;34521;33.042;-96.586;2023-07-31T09:51:05;99757.69;;;23.68;27.20
48718;BME280;34521;33.042;-96.586;2023-07-31T09:53:29;99750.11;;;23.58;27.55
48718;BME280;34521;33.042;-96.586;2023-07-31T09:55:54;99754.05;;;21.14;29.93
48718;BME280;34521;33.042;-96.586;2023-07-31T09:58:20;99756.50;;;21.22;29.58
48718;BME280;34521;33.042;-96.586;2023-07-31T10:00:45;99756.96;;;20.98;29.89
48718;BME280;34521;33.042;-96.586;2023-07-31T10:03:10;99753.66;;;23.19;27.72
48718;BME280;34521;33.042;-96.586;2023-07-31T10:05:36;99755.21;;;23.58;27.46
48718;BME280;34521;33.042;-96.586;2023-07-31T10:07:59;99756.51;;;22.94;28.05
48718;BME280;34521;33.042;-96.586;2023-07-31T10:10:25;99759.12;;;22.84;28.18
48718;BME280;34521;33.042;-96.586;2023-07-31T10:12:50;99760.96;;;22.90;27.95
48718;BME280;34521;33.042;-96.586;2023-07-31T10:15:15;99761.39;;;23.28;27.58
48718;BME280;34521;33.042;-96.586;2023-07-31T10:17:40;99767.40;;;22.70;28.53
48718;BME280;34521;33.042;-96.586;2023-07-31T10:20:07;99771.50;;;21.25;29.92
48718;BME280;34521;33.042;-96.586;2023-07-31T10:22:30;99768.51;;;21.15;29.50
48718;BME280;34521;33.042;-96.586;2023-07-31T10:24:55;99767.91;;;20.97;30.22
48718;BME280;34521;33.042;-96.586;2023-07-31T10:27:20;99760.82;;;23.09;27.91
48718;BME280;34521;33.042;-96.586;2023-07-31T10:29:45;99763.48;;;22.41;28.42
48718;BME280;34521;33.042;-96.586;2023-07-31T10:32:11;99765.61;;;22.66;28.28
48718;BME280;34521;33.042;-96.586;2023-07-31T10:34:36;99763.63;;;23.08;27.93
48718;BME280;34521;33.042;-96.586;2023-07-31T10:39:35;99771.83;;;23.32;27.72
48718;BME280;34521;33.042;-96.586;2023-07-31T10:41:50;99773.92;;;23.53;27.54
48718;BME280;34521;33.042;-96.586;2023-07-31T10:44:17;99783.36;;;21.10;30.01
48718;BME280;34521;33.042;-96.586;2023-07-31T10:46:41;99786.09;;;21.37;29.38
48718;BME280;34521;33.042;-96.586;2023-07-31T10:49:05;99791.49;;;21.52;29.41
48718;BME280;34521;33.042;-96.586;2023-07-31T10:51:35;99794.06;;;23.48;27.28
48718;BME280;34521;33.042;-96.586;2023-07-31T10:54:12;99799.53;;;23.87;26.87
48718;BME280;34521;33.042;-96.586;2023-07-31T10:56:21;99807.13;;;22.66;27.98
48718;BME280;34521;33.042;-96.586;2023-07-31T10:58:46;99810.51;;;23.40;27.78
48718;BME280;34521;33.042;-96.586;2023-07-31T11:01:11;99813.31;;;23.95;27.05
48718;BME280;34521;33.042;-96.586;2023-07-31T11:03:43;99819.79;;;23.51;27.51
48718;BME280;34521;33.042;-96.586;2023-07-31T11:06:02;99823.01;;;20.88;30.04
48718;BME280;34521;33.042;-96.586;2023-07-31T11:08:27;99827.28;;;21.05;29.96
48718;BME280;34521;33.042;-96.586;2023-07-31T11:13:17;99826.26;;;21.30;29.51
48718;BME280;34521;33.042;-96.586;2023-07-31T11:15:41;99832.44;;;23.07;27.42
48718;BME280;34521;33.042;-96.586;2023-07-31T11:18:07;99833.75;;;23.81;26.77
48718;BME280;34521;33.042;-96.586;2023-07-31T11:20:32;99839.59;;;22.48;28.22
48718;BME280;34521;33.042;-96.586;2023-07-31T11:22:59;99841.99;;;23.22;27.60
48718;BME280;34521;33.042;-96.586;2023-07-31T11:25:23;99846.91;;;23.37;27.48
48718;BME280;34521;33.042;-96.586;2023-07-31T11:27:46;99855.37;;;23.29;27.59
48718;BME280;34521;33.042;-96.586;2023-07-31T11:30:12;99861.19;;;23.40;27.03
48718;BME280;34521;33.042;-96.586;2023-07-31T11:32:37;99873.37;;;20.84;29.92
48718;BME280;34521;33.042;-96.586;2023-07-31T11:35:02;99878.10;;;20.90;29.52
48718;BME280;34521;33.042;-96.586;2023-07-31T11:37:40;99881.17;;;21.05;29.64
48718;BME280;34521;33.042;-96.586;2023-07-31T11:39:59;99881.21;;;23.27;27.33
48718;BME280;34521;33.042;-96.586;2023-07-31T11:42:17;99881.91;;;22.72;27.96
48718;BME280;34521;33.042;-96.586;2023-07-31T11:44:42;99881.05;;;23.78;27.01
48718;BME280;34521;33.042;-96.586;2023-07-31T11:47:07;99883.34;;;23.43;27.35
48718;BME280;34521;33.042;-96.586;2023-07-31T11:49:32;99888.87;;;23.21;27.72
48718;BME280;34521;33.042;-96.586;2023-07-31T11:51:57;99887.94;;;23.97;26.77
48718;BME280;34521;33.042;-96.586;2023-07-31T11:54:22;99885.26;;;23.48;27.29
48718;BME280;34521;33.042;-96.586;2023-07-31T11:56:47;99881.84;;;21.62;29.60
48718;BME280;34521;33.042;-96.586;2023-07-31T11:59:12;99893.22;;;20.36;30.96
48718;BME280;34521;33.042;-96.586;2023-07-31T12:01:43;99891.40;;;21.00;29.94
48718;BME280;34521;33.042;-96.586;2023-07-31T12:04:03;99889.38;;;21.54;29.84
48718;BME280;34521;33.042;-96.586;2023-07-31T12:06:34;99894.56;;;23.30;27.79
48718;BME280;34521;33.042;-96.586;2023-07-31T12:08:53;99897.97;;;22.92;28.53
48718;BME280;34521;33.042;-96.586;2023-07-31T12:11:18;99896.43;;;22.84;28.27
48718;BME280;34521;33.042;-96.586;2023-07-31T12:13:43;99900.63;;;22.65;28.50
48718;BME280;34521;33.042;-96.586;2023-07-31T12:16:08;99901.65;;;23.42;27.74
48718;BME280;34521;33.042;-96.586;2023-07-31T12:18:36;99903.60;;;23.06;28.16
48718;BME280;34521;33.042;-96.586;2023-07-31T12:20:59;99909.80;;;20.97;30.45
48718;BME280;34521;33.042;-96.586;2023-07-31T12:23:25;99913.27;;;20.26;31.18
48718;BME280;34521;33.042;-96.586;2023-07-31T12:25:54;99915.62;;;20.39;30.46
48718;BME280;34521;33.042;-96.586;2023-07-31T12:28:13;99920.47;;;20.62;30.98
48718;BME280;34521;33.042;-96.586;2023-07-31T12:30:39;99918.40;;;22.91;28.31
48718;BME280;34521;33.042;-96.586;2023-07-31T12:33:05;99923.00;;;22.67;28.38